sensor_id;sensor_type;location;lat;lon;timestamp;pressure;altitude;pressure_sealevel;temperature;humidity
70982;BME280;58640;51.320;9.456;2022-11-11T00:01:54;100752.88;;;7.14;96.11
70982;BME280;58640;51.320;9.456;2022-11-11T00:04:19;100757.75;;;7.09;96.53
70982;BME280;58640;51.320;9.456;2022-11-11T00:06:46;100746.91;;;7.10;96.81
70982;BME280;58640;51.320;9.456;2022-11-11T00:09:11;100742.91;;;7.05;96.63
70982;BME280;58640;51.320;9.456;2022-11-11T00:11:36;100743.03;;;7.03;96.81
70982;BME280;58640;51.320;9.456;2022-11-11T00:14:02;100740.25;;;7.05;96.57
70982;BME280;58640;51.320;9.456;2022-11-11T00:16:27;100730.75;;;7.01;96.94
70982;BME280;58640;51.320;9.456;2022-11-11T00:19:12;100724.66;;;6.99;97.41
70982;BME280;58640;51.320;9.456;2022-11-11T00:21:56;100728.81;;;7.14;95.99
70982;BME280;58640;51.320;9.456;2022-11-11T00:24:40;100730.88;;;7.10;97.03
70982;BME280;58640;51.320;9.456;2022-11-11T00:27:24;100730.50;;;7.04;96.46
70982;BME280;58640;51.320;9.456;2022-11-11T00:29:49;100729.19;;;7.09;96.41
70982;BME280;58640;51.320;9.456;2022-11-11T00:32:15;100729.06;;;7.00;97.34
70982;BME280;58640;51.320;9.456;2022-11-11T00:34:56;100730.88;;;6.99;97.46
70982;BME280;58640;51.320;9.456;2022-11-11T00:37:42;100729.78;;;7.02;97.15
70982;BME280;58640;51.320;9.456;2022-11-11T00:40:08;100726.63;;;7.19;96.43
70982;BME280;58640;51.320;9.456;2022-11-11T00:42:33;100730.38;;;7.05;97.26
70982;BME280;58640;51.320;9.456;2022-11-11T00:44:59;100721.88;;;7.11;97.23
70982;BME280;58640;51.320;9.456;2022-11-11T00:47:24;100713.75;;;7.02;97.62
70982;BME280;58640;51.320;9.456;2022-11-11T00:50:14;100718.59;;;7.08;97.62
70982;BME280;58640;51.320;9.456;2022-11-11T00:52:59;100731.09;;;7.18;96.82
70982;BME280;58640;51.320;9.456;2022-11-11T00:55:25;100736.09;;;7.12;97.30
70982;BME280;58640;51.320;9.456;2022-11-11T00:57:50;100748.84;;;7.08;97.69
70982;BME280;58640;51.320;9.456;2022-11-11T01:00:15;100744.38;;;6.98;98.41
70982;BME280;58640;51.320;9.456;2022-11-11T01:02:41;100746.78;;;6.90;98.94
70982;BME280;58640;51.320;9.456;2022-11-11T01:05:06;100751.41;;;6.88;99.25
70982;BME280;58640;51.320;9.456;2022-11-11T01:07:32;100758.34;;;6.90;98.93
70982;BME280;58640;51.320;9.456;2022-11-11T01:09:57;100753.38;;;6.97;98.48
70982;BME280;58640;51.320;9.456;2022-11-11T01:12:23;100757.50;;;7.01;98.17
70982;BME280;58640;51.320;9.456;2022-11-11T01:14:48;100769.19;;;6.89;98.63
70982;BME280;58640;51.320;9.456;2022-11-11T01:17:13;100779.13;;;6.87;98.77
70982;BME280;58640;51.320;9.456;2022-11-11T01:19:39;100785.59;;;6.84;98.58
70982;BME280;58640;51.320;9.456;2022-11-11T01:22:04;100796.72;;;6.78;99.61
70982;BME280;58640;51.320;9.456;2022-11-11T01:24:29;100793.00;;;6.81;99.40
70982;BME280;58640;51.320;9.456;2022-11-11T01:26:55;100791.16;;;6.81;98.91
70982;BME280;58640;51.320;9.456;2022-11-11T01:29:20;100783.84;;;6.72;99.34
70982;BME280;58640;51.320;9.456;2022-11-11T01:31:45;100782.50;;;6.67;100.00
70982;BME280;58640;51.320;9.456;2022-11-11T01:34:11;100770.47;;;6.61;100.00
70982;BME280;58640;51.320;9.456;2022-11-11T01:36:36;100777.72;;;6.59;100.00
70982;BME280;58640;51.320;9.456;2022-11-11T01:39:02;100774.94;;;6.61;100.00
70982;BME280;58640;51.320;9.456;2022-11-11T01:41:36;100788.53;;;6.58;100.00
70982;BME280;58640;51.320;9.456;2022-11-11T01:46:40;100787.22;;;6.52;100.00
70982;BME280;58640;51.320;9.456;2022-11-11T01:52:12;100784.06;;;6.58;100.00
70982;BME280;58640;51.320;9.456;2022-11-11T01:55:08;100779.91;;;6.54;100.00
70982;BME280;58640;51.320;9.456;2022-11-11T02:00:07;100769.81;;;6.47;100.00
70982;BME280;58640;51.320;9.456;2022-11-11T02:05:06;100769.56;;;6.50;100.00
70982;BME280;58640;51.320;9.456;2022-11-11T02:07:51;100773.50;;;6.57;100.00
70982;BME280;58640;51.320;9.456;2022-11-11T02:10:21;100779.97;;;6.65;100.00
70982;BME280;58640;51.320;9.456;2022-11-11T02:12:47;100763.44;;;6.71;100.00
70982;BME280;58640;51.320;9.456;2022-11-11T02:15:32;100763.34;;;6.84;100.00
70982;BME280;58640;51.320;9.456;2022-11-11T02:17:58;100765.13;;;6.83;100.00
70982;BME280;58640;51.320;9.456;2022-11-11T02:20:26;100764.41;;;6.81;100.00
70982;BME280;58640;51.320;9.456;2022-11-11T02:23:06;100775.97;;;7.04;100.00
70982;BME280;58640;51.320;9.456;2022-11-11T02:25:36;100775.16;;;7.14;100.00
70982;BME280;58640;51.320;9.456;2022-11-11T02:28:05;100774.78;;;6.97;100.00
70982;BME280;58640;51.320;9.456;2022-11-11T02:30:32;100776.84;;;7.04;100.00
70982;BME280;58640;51.320;9.456;2022-11-11T02:32:58;100771.25;;;7.18;99.47
70982;BME280;58640;51.320;9.456;2022-11-11T02:35:30;100777.56;;;7.17;99.94
70982;BME280;58640;51.320;9.456;2022-11-11T02:37:55;100780.63;;;7.13;99.74
70982;BME280;58640;51.320;9.456;2022-11-11T02:40:35;100792.53;;;7.09;100.00
70982;BME280;58640;51.320;9.456;2022-11-11T02:43:00;100789.34;;;7.15;99.88
70982;BME280;58640;51.320;9.456;2022-11-11T02:45:26;100794.34;;;7.08;100.00
70982;BME280;58640;51.320;9.456;2022-11-11T02:47:51;100789.22;;;7.05;100.00
70982;BME280;58640;51.320;9.456;2022-11-11T02:50:17;100787.03;;;6.99;100.00
70982;BME280;58640;51.320;9.456;2022-11-11T02:52:42;100786.09;;;7.00;100.00
70982;BME280;58640;51.320;9.456;2022-11-11T02:55:08;100788.75;;;7.00;100.00
70982;BME280;58640;51.320;9.456;2022-11-11T02:57:33;100783.88;;;7.05;100.00
70982;BME280;58640;51.320;9.456;2022-11-11T02:59:59;100789.97;;;7.07;100.00
70982;BME280;58640;51.320;9.456;2022-11-11T03:02:26;100802.59;;;7.16;100.00
70982;BME280;58640;51.320;9.456;2022-11-11T03:04:55;100803.84;;;7.12;100.00
70982;BME280;58640;51.320;9.456;2022-11-11T03:07:21;100803.59;;;7.04;100.00
70982;BME280;58640;51.320;9.456;2022-11-11T03:09:47;100795.19;;;6.98;100.00
70982;BME280;58640;51.320;9.456;2022-11-11T03:12:13;100797.13;;;7.07;100.00
70982;BME280;58640;51.320;9.456;2022-11-11T03:14:39;100797.25;;;6.94;100.00
70982;BME280;58640;51.320;9.456;2022-11-11T03:17:04;100793.38;;;6.98;100.00
70982;BME280;58640;51.320;9.456;2022-11-11T03:19:48;100798.25;;;7.15;100.00
70982;BME280;58640;51.320;9.456;2022-11-11T03:22:13;100783.28;;;7.13;99.01
70982;BME280;58640;51.320;9.456;2022-11-11T03:24:39;100794.34;;;7.08;99.86
70982;BME280;58640;51.320;9.456;2022-11-11T03:27:23;100788.53;;;7.14;99.34
70982;BME280;58640;51.320;9.456;2022-11-11T03:29:48;100791.06;;;7.05;100.00
70982;BME280;58640;51.320;9.456;2022-11-11T03:32:13;100781.94;;;7.18;99.98
70982;BME280;58640;51.320;9.456;2022-11-11T03:34:39;100786.47;;;7.18;98.92
70982;BME280;58640;51.320;9.456;2022-11-11T03:37:06;100795.06;;;7.10;100.00
70982;BME280;58640;51.320;9.456;2022-11-11T03:39:51;100786.81;;;7.13;99.50
70982;BME280;58640;51.320;9.456;2022-11-11T03:42:16;100804.44;;;7.05;99.95
70982;BME280;58640;51.320;9.456;2022-11-11T03:44:41;100803.72;;;7.03;100.00
70982;BME280;58640;51.320;9.456;2022-11-11T03:47:07;100797.50;;;7.02;100.00
70982;BME280;58640;51.320;9.456;2022-11-11T03:49:32;100799.81;;;7.07;100.00
70982;BME280;58640;51.320;9.456;2022-11-11T03:51:57;100795.56;;;7.15;99.06
70982;BME280;58640;51.320;9.456;2022-11-11T03:54:23;100795.44;;;7.06;100.00
70982;BME280;58640;51.320;9.456;2022-11-11T03:56:48;100798.25;;;7.04;99.92
70982;BME280;58640;51.320;9.456;2022-11-11T03:59:13;100793.00;;;7.03;99.87
70982;BME280;58640;51.320;9.456;2022-11-11T04:01:39;100802.97;;;6.90;100.00
70982;BME280;58640;51.320;9.456;2022-11-11T04:04:23;100809.91;;;6.92;100.00
70982;BME280;58640;51.320;9.456;2022-11-11T04:07:08;100818.06;;;7.02;100.00
70982;BME280;58640;51.320;9.456;2022-11-11T04:10:09;100812.59;;;7.14;99.53
70982;BME280;58640;51.320;9.456;2022-11-11T04:12:49;100815.59;;;6.99;100.00
70982;BME280;58640;51.320;9.456;2022-11-11T04:15:34;100821.31;;;6.83;100.00
70982;BME280;58640;51.320;9.456;2022-11-11T04:18:22;100819.13;;;6.88;100.00
70982;BME280;58640;51.320;9.456;2022-11-11T04:21:08;100827.53;;;6.95;100.00
70982;BME280;58640;51.320;9.456;2022-11-11T04:24:03;100825.34;;;6.89;100.00
70982;BME280;58640;51.320;9.456;2022-11-11T04:26:49;100830.81;;;6.87;100.00
70982;BME280;58640;51.320;9.456;2022-11-11T04:29:14;100827.66;;;6.93;100.00
70982;BME280;58640;51.320;9.456;2022-11-11T04:31:53;100824.38;;;7.01;100.00
70982;BME280;58640;51.320;9.456;2022-11-11T04:34:37;100822.91;;;6.97;100.00
70982;BME280;58640;51.320;9.456;2022-11-11T04:37:02;100826.44;;;6.97;100.00
70982;BME280;58640;51.320;9.456;2022-11-11T04:39:27;100827.03;;;7.01;100.00
70982;BME280;58640;51.320;9.456;2022-11-11T04:42:11;100819.16;;;7.10;100.00
70982;BME280;58640;51.320;9.456;2022-11-11T04:44:37;100816.59;;;7.09;100.00
70982;BME280;58640;51.320;9.456;2022-11-11T04:47:20;100825.00;;;7.04;100.00
70982;BME280;58640;51.320;9.456;2022-11-11T04:49:46;100808.81;;;7.06;100.00
70982;BME280;58640;51.320;9.456;2022-11-11T04:52:11;100820.00;;;7.11;100.00
70982;BME280;58640;51.320;9.456;2022-11-11T04:54:56;100815.84;;;6.96;100.00
70982;BME280;58640;51.320;9.456;2022-11-11T04:57:46;100818.38;;;6.86;100.00
70982;BME280;58640;51.320;9.456;2022-11-11T05:00:14;100822.53;;;6.90;100.00
70982;BME280;58640;51.320;9.456;2022-11-11T05:02:41;100817.44;;;6.98;100.00
70982;BME280;58640;51.320;9.456;2022-11-11T05:05:25;100825.72;;;7.06;100.00
70982;BME280;58640;51.320;9.456;2022-11-11T05:07:51;100817.81;;;6.94;100.00
70982;BME280;58640;51.320;9.456;2022-11-11T05:10:35;100819.75;;;6.92;100.00
70982;BME280;58640;51.320;9.456;2022-11-11T05:13:02;100812.53;;;6.81;100.00
70982;BME280;58640;51.320;9.456;2022-11-11T05:15:47;100827.63;;;6.82;100.00
70982;BME280;58640;51.320;9.456;2022-11-11T05:18:31;100825.09;;;6.92;100.00
70982;BME280;58640;51.320;9.456;2022-11-11T05:21:18;100823.75;;;6.97;99.13
70982;BME280;58640;51.320;9.456;2022-11-11T05:23:44;100815.94;;;6.83;100.00
70982;BME280;58640;51.320;9.456;2022-11-11T05:26:28;100830.84;;;6.64;100.00
70982;BME280;58640;51.320;9.456;2022-11-11T05:28:54;100825.75;;;6.72;100.00
70982;BME280;58640;51.320;9.456;2022-11-11T05:31:19;100823.63;;;6.99;99.26
70982;BME280;58640;51.320;9.456;2022-11-11T05:33:44;100821.69;;;7.01;99.76
70982;BME280;58640;51.320;9.456;2022-11-11T05:36:10;100816.94;;;6.93;99.80
70982;BME280;58640;51.320;9.456;2022-11-11T05:38:35;100822.41;;;6.92;99.59
70982;BME280;58640;51.320;9.456;2022-11-11T05:41:00;100814.00;;;6.74;100.00
70982;BME280;58640;51.320;9.456;2022-11-11T05:43:26;100811.72;;;6.81;100.00
70982;BME280;58640;51.320;9.456;2022-11-11T05:45:51;100814.75;;;6.76;100.00
70982;BME280;58640;51.320;9.456;2022-11-11T05:48:16;100819.50;;;6.84;99.92
70982;BME280;58640;51.320;9.456;2022-11-11T05:50:42;100822.78;;;6.87;99.95
70982;BME280;58640;51.320;9.456;2022-11-11T05:53:08;100825.56;;;6.75;100.00
70982;BME280;58640;51.320;9.456;2022-11-11T05:55:33;100822.88;;;6.75;100.00
70982;BME280;58640;51.320;9.456;2022-11-11T05:57:58;100820.31;;;6.73;100.00
70982;BME280;58640;51.320;9.456;2022-11-11T06:00:24;100832.97;;;6.71;100.00
70982;BME280;58640;51.320;9.456;2022-11-11T06:02:49;100832.75;;;6.85;100.00
70982;BME280;58640;51.320;9.456;2022-11-11T06:05:14;100836.03;;;6.89;99.94
70982;BME280;58640;51.320;9.456;2022-11-11T06:07:40;100824.97;;;6.82;100.00
70982;BME280;58640;51.320;9.456;2022-11-11T06:10:05;100822.91;;;6.86;100.00
70982;BME280;58640;51.320;9.456;2022-11-11T06:12:50;100823.72;;;6.75;100.00
70982;BME280;58640;51.320;9.456;2022-11-11T06:15:33;100829.53;;;6.69;100.00
70982;BME280;58640;51.320;9.456;2022-11-11T06:18:00;100828.38;;;6.84;100.00
70982;BME280;58640;51.320;9.456;2022-11-11T06:20:26;100833.38;;;7.00;99.86
70982;BME280;58640;51.320;9.456;2022-11-11T06:22:51;100831.88;;;6.85;99.63
70982;BME280;58640;51.320;9.456;2022-11-11T06:25:27;100829.44;;;6.82;100.00
70982;BME280;58640;51.320;9.456;2022-11-11T06:28:12;100830.81;;;6.87;100.00
70982;BME280;58640;51.320;9.456;2022-11-11T06:30:38;100828.50;;;6.94;99.30
70982;BME280;58640;51.320;9.456;2022-11-11T06:33:03;100833.63;;;6.97;99.59
70982;BME280;58640;51.320;9.456;2022-11-11T06:35:29;100838.00;;;6.98;99.69
70982;BME280;58640;51.320;9.456;2022-11-11T06:37:54;100835.69;;;6.93;99.51
70982;BME280;58640;51.320;9.456;2022-11-11T06:40:19;100835.78;;;6.92;99.19
70982;BME280;58640;51.320;9.456;2022-11-11T06:42:45;100838.09;;;6.85;99.67
70982;BME280;58640;51.320;9.456;2022-11-11T06:45:10;100835.63;;;6.71;100.00
70982;BME280;58640;51.320;9.456;2022-11-11T06:47:35;100840.00;;;6.72;100.00
70982;BME280;58640;51.320;9.456;2022-11-11T06:50:01;100849.81;;;6.72;100.00
70982;BME280;58640;51.320;9.456;2022-11-11T06:52:26;100854.38;;;6.82;100.00
70982;BME280;58640;51.320;9.456;2022-11-11T06:54:52;100858.25;;;6.78;100.00
70982;BME280;58640;51.320;9.456;2022-11-11T06:57:18;100865.34;;;6.90;100.00
70982;BME280;58640;51.320;9.456;2022-11-11T06:59:43;100862.41;;;6.82;100.00
70982;BME280;58640;51.320;9.456;2022-11-11T07:02:12;100858.63;;;6.85;100.00
70982;BME280;58640;51.320;9.456;2022-11-11T07:04:38;100853.78;;;6.90;99.66
70982;BME280;58640;51.320;9.456;2022-11-11T07:07:03;100860.66;;;6.81;100.00
70982;BME280;58640;51.320;9.456;2022-11-11T07:09:29;100871.88;;;6.86;100.00
70982;BME280;58640;51.320;9.456;2022-11-11T07:11:54;100860.66;;;6.81;100.00
70982;BME280;58640;51.320;9.456;2022-11-11T07:14:19;100870.06;;;6.87;100.00
70982;BME280;58640;51.320;9.456;2022-11-11T07:16:45;100872.75;;;6.87;100.00
70982;BME280;58640;51.320;9.456;2022-11-11T07:19:10;100872.97;;;6.84;99.98
70982;BME280;58640;51.320;9.456;2022-11-11T07:21:35;100870.59;;;7.03;98.52
70982;BME280;58640;51.320;9.456;2022-11-11T07:24:01;100873.88;;;6.95;98.93
70982;BME280;58640;51.320;9.456;2022-11-11T07:26:26;100888.06;;;6.96;98.91
70982;BME280;58640;51.320;9.456;2022-11-11T07:28:51;100887.03;;;7.09;98.23
70982;BME280;58640;51.320;9.456;2022-11-11T07:31:17;100899.38;;;6.99;98.45
70982;BME280;58640;51.320;9.456;2022-11-11T07:33:42;100899.91;;;7.04;97.50
70982;BME280;58640;51.320;9.456;2022-11-11T07:36:08;100902.56;;;7.04;97.45
70982;BME280;58640;51.320;9.456;2022-11-11T07:38:33;100916.44;;;7.09;97.70
70982;BME280;58640;51.320;9.456;2022-11-11T07:40:58;100915.59;;;7.09;97.57
70982;BME280;58640;51.320;9.456;2022-11-11T07:43:24;100916.22;;;7.12;97.07
70982;BME280;58640;51.320;9.456;2022-11-11T07:45:49;100920.16;;;7.30;96.59
70982;BME280;58640;51.320;9.456;2022-11-11T07:48:15;100919.16;;;7.20;96.07
70982;BME280;58640;51.320;9.456;2022-11-11T07:50:40;100932.75;;;7.06;96.67
70982;BME280;58640;51.320;9.456;2022-11-11T07:53:06;100939.16;;;7.04;96.93
70982;BME280;58640;51.320;9.456;2022-11-11T07:55:31;100938.34;;;7.14;96.45
70982;BME280;58640;51.320;9.456;2022-11-11T07:57:57;100945.66;;;7.12;96.67
70982;BME280;58640;51.320;9.456;2022-11-11T08:00:23;100940.06;;;7.15;96.49
70982;BME280;58640;51.320;9.456;2022-11-11T08:02:48;100943.00;;;7.23;96.11
70982;BME280;58640;51.320;9.456;2022-11-11T08:05:14;100945.94;;;7.31;95.73
70982;BME280;58640;51.320;9.456;2022-11-11T08:07:39;100943.75;;;7.25;95.45
70982;BME280;58640;51.320;9.456;2022-11-11T08:10:07;100949.50;;;7.43;95.06
70982;BME280;58640;51.320;9.456;2022-11-11T08:12:33;100947.75;;;7.42;94.66
70982;BME280;58640;51.320;9.456;2022-11-11T08:15:17;100961.25;;;7.29;95.77
70982;BME280;58640;51.320;9.456;2022-11-11T08:17:42;100961.38;;;7.39;94.27
70982;BME280;58640;51.320;9.456;2022-11-11T08:20:08;100961.28;;;7.52;94.29
70982;BME280;58640;51.320;9.456;2022-11-11T08:22:38;100959.38;;;7.76;93.35
70982;BME280;58640;51.320;9.456;2022-11-11T08:25:09;100966.44;;;7.77;92.78
70982;BME280;58640;51.320;9.456;2022-11-11T08:27:36;100959.13;;;7.79;92.74
70982;BME280;58640;51.320;9.456;2022-11-11T08:30:03;100962.53;;;7.81;92.53
70982;BME280;58640;51.320;9.456;2022-11-11T08:32:29;100964.50;;;8.01;91.80
70982;BME280;58640;51.320;9.456;2022-11-11T08:34:54;100957.28;;;8.12;90.79
70982;BME280;58640;51.320;9.456;2022-11-11T08:37:20;100957.53;;;8.09;90.14
70982;BME280;58640;51.320;9.456;2022-11-11T08:39:45;100970.22;;;8.07;89.93
70982;BME280;58640;51.320;9.456;2022-11-11T08:42:11;100965.00;;;8.17;89.44
70982;BME280;58640;51.320;9.456;2022-11-11T08:44:36;100964.13;;;8.27;89.09
70982;BME280;58640;51.320;9.456;2022-11-11T08:47:02;100974.75;;;8.29;89.63
70982;BME280;58640;51.320;9.456;2022-11-11T08:49:27;100981.19;;;8.37;89.69
70982;BME280;58640;51.320;9.456;2022-11-11T08:51:52;100977.03;;;8.44;88.89
70982;BME280;58640;51.320;9.456;2022-11-11T08:54:18;100977.47;;;8.60;87.61
70982;BME280;58640;51.320;9.456;2022-11-11T08:56:43;100982.00;;;8.60;87.21
70982;BME280;58640;51.320;9.456;2022-11-11T08:59:09;100974.19;;;8.57;87.06
70982;BME280;58640;51.320;9.456;2022-11-11T09:01:35;100976.59;;;8.71;87.15
70982;BME280;58640;51.320;9.456;2022-11-11T09:04:00;100985.88;;;8.67;86.92
70982;BME280;58640;51.320;9.456;2022-11-11T09:06:27;100982.59;;;8.63;86.63
70982;BME280;58640;51.320;9.456;2022-11-11T09:08:53;100986.16;;;8.53;86.36
70982;BME280;58640;51.320;9.456;2022-11-11T09:11:18;100976.97;;;8.66;86.69
70982;BME280;58640;51.320;9.456;2022-11-11T09:13:45;100976.69;;;8.80;86.36
70982;BME280;58640;51.320;9.456;2022-11-11T09:16:10;100986.75;;;8.99;85.72
70982;BME280;58640;51.320;9.456;2022-11-11T09:18:36;100989.25;;;9.32;83.94
70982;BME280;58640;51.320;9.456;2022-11-11T09:21:02;100987.75;;;9.19;84.20
70982;BME280;58640;51.320;9.456;2022-11-11T09:23:28;100987.84;;;9.28;84.26
70982;BME280;58640;51.320;9.456;2022-11-11T09:25:53;100994.91;;;9.29;84.45
70982;BME280;58640;51.320;9.456;2022-11-11T09:28:18;100989.66;;;9.69;83.18
70982;BME280;58640;51.320;9.456;2022-11-11T09:30:44;100987.06;;;9.88;82.17
70982;BME280;58640;51.320;9.456;2022-11-11T09:33:09;100990.63;;;9.88;81.16
70982;BME280;58640;51.320;9.456;2022-11-11T09:35:36;100987.09;;;10.18;80.90
70982;BME280;58640;51.320;9.456;2022-11-11T09:38:02;101005.41;;;10.24;80.77
70982;BME280;58640;51.320;9.456;2022-11-11T09:43:39;100995.66;;;9.82;81.22
70982;BME280;58640;51.320;9.456;2022-11-11T09:48:49;100980.56;;;10.11;79.77
70982;BME280;58640;51.320;9.456;2022-11-11T09:51:24;100988.84;;;9.98;80.95
70982;BME280;58640;51.320;9.456;2022-11-11T09:53:55;100992.06;;;10.62;79.41
70982;BME280;58640;51.320;9.456;2022-11-11T09:56:24;100998.06;;;11.04;77.09
70982;BME280;58640;51.320;9.456;2022-11-11T09:59:06;100988.69;;;10.89;76.40
70982;BME280;58640;51.320;9.456;2022-11-11T10:01:52;101001.56;;;10.85;77.36
70982;BME280;58640;51.320;9.456;2022-11-11T10:04:29;100989.41;;;10.91;76.66
70982;BME280;58640;51.320;9.456;2022-11-11T10:07:04;100990.81;;;11.14;76.42
70982;BME280;58640;51.320;9.456;2022-11-11T10:09:36;100987.44;;;11.12;76.15
70982;BME280;58640;51.320;9.456;2022-11-11T10:12:10;100985.59;;;11.12;76.70
70982;BME280;58640;51.320;9.456;2022-11-11T10:14:41;100992.41;;;11.26;75.75
70982;BME280;58640;51.320;9.456;2022-11-11T10:17:33;100997.78;;;11.07;75.87
70982;BME280;58640;51.320;9.456;2022-11-11T10:20:10;100992.25;;;11.27;75.59
70982;BME280;58640;51.320;9.456;2022-11-11T10:22:43;100986.72;;;11.19;75.56
70982;BME280;58640;51.320;9.456;2022-11-11T10:27:39;100979.38;;;11.02;75.97
70982;BME280;58640;51.320;9.456;2022-11-11T10:30:33;100980.91;;;10.95;76.32
70982;BME280;58640;51.320;9.456;2022-11-11T10:33:03;100986.72;;;10.91;76.92
70982;BME280;58640;51.320;9.456;2022-11-11T10:35:31;100987.88;;;11.07;76.34
70982;BME280;58640;51.320;9.456;2022-11-11T10:40:45;100975.66;;;11.03;76.84
70982;BME280;58640;51.320;9.456;2022-11-11T10:43:24;100988.00;;;11.06;76.12
70982;BME280;58640;51.320;9.456;2022-11-11T10:46:30;100980.47;;;10.90;76.49
70982;BME280;58640;51.320;9.456;2022-11-11T10:49:04;100976.38;;;10.86;76.25
70982;BME280;58640;51.320;9.456;2022-11-11T10:51:37;100989.38;;;10.62;77.18
70982;BME280;58640;51.320;9.456;2022-11-11T10:54:14;100978.88;;;10.50;78.28
70982;BME280;58640;51.320;9.456;2022-11-11T10:56:54;100976.34;;;10.67;77.42
70982;BME280;58640;51.320;9.456;2022-11-11T10:59:23;100978.06;;;10.87;76.95
70982;BME280;58640;51.320;9.456;2022-11-11T11:01:58;100971.94;;;10.76;77.15
70982;BME280;58640;51.320;9.456;2022-11-11T11:04:35;100980.00;;;10.66;77.45
70982;BME280;58640;51.320;9.456;2022-11-11T11:07:04;100976.69;;;10.44;78.50
70982;BME280;58640;51.320;9.456;2022-11-11T11:09:49;100964.56;;;10.49;78.64
70982;BME280;58640;51.320;9.456;2022-11-11T11:12:23;100959.50;;;10.65;78.59
70982;BME280;58640;51.320;9.456;2022-11-11T11:14:55;100959.03;;;10.51;79.17
70982;BME280;58640;51.320;9.456;2022-11-11T11:17:27;100959.19;;;10.59;79.07
70982;BME280;58640;51.320;9.456;2022-11-11T11:20:08;100963.44;;;10.61;79.73
70982;BME280;58640;51.320;9.456;2022-11-11T11:22:45;100954.22;;;10.54;78.36
70982;BME280;58640;51.320;9.456;2022-11-11T11:25:12;100959.75;;;10.53;79.25
70982;BME280;58640;51.320;9.456;2022-11-11T11:27:37;100958.31;;;10.49;79.08
70982;BME280;58640;51.320;9.456;2022-11-11T11:30:11;100957.31;;;10.40;79.44
70982;BME280;58640;51.320;9.456;2022-11-11T11:32:38;100958.75;;;10.54;79.04
70982;BME280;58640;51.320;9.456;2022-11-11T11:35:07;100960.59;;;10.53;79.07
70982;BME280;58640;51.320;9.456;2022-11-11T11:37:47;100958.75;;;10.54;79.19
70982;BME280;58640;51.320;9.456;2022-11-11T11:40:13;100960.59;;;10.53;79.25
70982;BME280;58640;51.320;9.456;2022-11-11T11:42:39;100966.13;;;10.61;78.78
70982;BME280;58640;51.320;9.456;2022-11-11T11:45:25;100968.81;;;10.61;79.12
70982;BME280;58640;51.320;9.456;2022-11-11T11:48:08;100967.25;;;10.59;79.86
70982;BME280;58640;51.320;9.456;2022-11-11T11:50:46;100968.13;;;10.59;79.35
70982;BME280;58640;51.320;9.456;2022-11-11T11:56:41;100970.81;;;10.59;79.54
70982;BME280;58640;51.320;9.456;2022-11-11T11:59:21;100977.31;;;10.66;79.33
70982;BME280;58640;51.320;9.456;2022-11-11T12:01:57;100971.13;;;10.66;79.40
70982;BME280;58640;51.320;9.456;2022-11-11T12:07:15;100976.91;;;10.71;79.85
70982;BME280;58640;51.320;9.456;2022-11-11T12:12:55;100970.13;;;10.76;79.48
70982;BME280;58640;51.320;9.456;2022-11-11T12:15:37;100980.91;;;11.05;78.30
70982;BME280;58640;51.320;9.456;2022-11-11T12:23:37;100984.75;;;11.02;78.62
70982;BME280;58640;51.320;9.456;2022-11-11T12:38:49;100962.50;;;11.19;78.06
70982;BME280;58640;51.320;9.456;2022-11-11T12:46:39;100948.56;;;11.33;77.02
70982;BME280;58640;51.320;9.456;2022-11-11T12:52:16;100944.47;;;11.39;76.54
70982;BME280;58640;51.320;9.456;2022-11-11T12:55:02;100945.72;;;11.35;77.04
70982;BME280;58640;51.320;9.456;2022-11-11T13:01:02;100929.84;;;11.41;76.22
70982;BME280;58640;51.320;9.456;2022-11-11T13:03:51;100932.25;;;11.44;76.27
70982;BME280;58640;51.320;9.456;2022-11-11T13:10:05;100927.41;;;11.48;76.39
70982;BME280;58640;51.320;9.456;2022-11-11T13:12:23;100928.97;;;11.50;76.10
70982;BME280;58640;51.320;9.456;2022-11-11T13:17:26;100931.41;;;11.63;75.53
70982;BME280;58640;51.320;9.456;2022-11-11T13:19:56;100932.63;;;11.59;74.78
70982;BME280;58640;51.320;9.456;2022-11-11T13:22:29;100939.88;;;11.49;75.50
70982;BME280;58640;51.320;9.456;2022-11-11T13:24:55;100933.38;;;11.51;75.72
70982;BME280;58640;51.320;9.456;2022-11-11T13:27:36;100926.84;;;11.63;74.91
70982;BME280;58640;51.320;9.456;2022-11-11T13:32:54;100921.88;;;11.68;74.45
70982;BME280;58640;51.320;9.456;2022-11-11T13:35:37;100929.25;;;11.66;74.18
70982;BME280;58640;51.320;9.456;2022-11-11T13:38:06;100920.03;;;11.69;73.31
70982;BME280;58640;51.320;9.456;2022-11-11T13:40:42;100921.00;;;11.68;73.85
70982;BME280;58640;51.320;9.456;2022-11-11T13:43:17;100918.00;;;11.81;72.78
70982;BME280;58640;51.320;9.456;2022-11-11T13:45:52;100917.47;;;11.67;71.97
70982;BME280;58640;51.320;9.456;2022-11-11T13:51:19;100930.81;;;11.59;72.88
70982;BME280;58640;51.320;9.456;2022-11-11T13:53:47;100923.44;;;11.61;72.68
70982;BME280;58640;51.320;9.456;2022-11-11T13:56:22;100926.53;;;11.66;71.88
70982;BME280;58640;51.320;9.456;2022-11-11T13:58:48;100926.25;;;11.60;72.73
70982;BME280;58640;51.320;9.456;2022-11-11T14:01:15;100930.97;;;11.67;72.52
70982;BME280;58640;51.320;9.456;2022-11-11T14:03:58;100925.28;;;11.61;73.02
70982;BME280;58640;51.320;9.456;2022-11-11T14:08:51;100936.91;;;11.71;72.08
70982;BME280;58640;51.320;9.456;2022-11-11T14:13:48;100923.44;;;11.61;71.88
70982;BME280;58640;51.320;9.456;2022-11-11T14:24:25;100921.72;;;11.60;72.14
70982;BME280;58640;51.320;9.456;2022-11-11T14:29:35;100926.00;;;11.63;71.55
70982;BME280;58640;51.320;9.456;2022-11-11T14:32:10;100917.34;;;11.59;72.13
70982;BME280;58640;51.320;9.456;2022-11-11T14:40:27;100916.63;;;11.57;72.38
70982;BME280;58640;51.320;9.456;2022-11-11T14:42:53;100916.75;;;11.56;72.08
70982;BME280;58640;51.320;9.456;2022-11-11T14:47:47;100917.22;;;11.51;72.26
70982;BME280;58640;51.320;9.456;2022-11-11T14:53:00;100910.81;;;11.52;72.10